Time;durP1;ratioP1;P1;durP2;ratioP2;P2;SDS_P1;SDS_P2;PMS_P1;PMS_P2;Temp;Humidity;BMP_temperature;BMP_pressure;BME280_temperature;BME280_humidity;BME280_pressure;Samples;Min_cycle;Max_cycle;Signal;HPM_P1;HPM_P2
2021/10/20 00:00:53;;;;;;;2.17;1.47;;;;;;;;;;4545660;28;37131;-60
2021/10/20 00:03:04;;;;;;;2.13;1.53;;;;;;;;;;4545925;28;20036;-60
2021/10/20 00:05:14;;;;;;;1.93;1.60;;;;;;;;;;4548119;28;20049;-60
2021/10/20 00:07:25;;;;;;;2.17;1.57;;;;;;;;;;4544793;28;20439;-60
2021/10/20 00:09:35;;;;;;;2.13;1.57;;;;;;;;;;4545081;28;21244;-60
2021/10/20 00:11:47;;;;;;;1.40;1.30;;;;;;;;;;4544992;28;20033;-60
2021/10/20 00:13:58;;;;;;;2.25;1.70;;;;;;;;;;4543151;28;20040;-60
2021/10/20 00:16:08;;;;;;;1.90;1.40;;;;;;;;;;4545249;28;20044;-61
2021/10/20 00:18:19;;;;;;;1.60;1.40;;;;;;;;;;4545782;28;20033;-61
2021/10/20 00:20:30;;;;;;;2.33;1.45;;;;;;;;;;4547705;28;20083;-61
2021/10/20 00:22:41;;;;;;;2.17;1.58;;;;;;;;;;4548156;28;20863;-61
2021/10/20 00:24:52;;;;;;;2.50;1.40;;;;;;;;;;4544047;28;20040;-61
2021/10/20 00:27:02;;;;;;;1.83;1.40;;;;;;;;;;4543422;28;20521;-61
2021/10/20 00:29:13;;;;;;;2.40;1.50;;;;;;;;;;4553597;28;20036;-61
2021/10/20 00:31:23;;;;;;;2.37;1.60;;;;;;;;;;4544999;28;20037;-60
2021/10/20 00:33:34;;;;;;;1.53;1.40;;;;;;;;;;4542662;28;20044;-60
2021/10/20 00:35:44;;;;;;;2.40;1.50;;;;;;;;;;4545749;28;20370;-60
2021/10/20 00:37:55;;;;;;;1.93;1.50;;;;;;;;;;4553873;28;20690;-60
2021/10/20 00:40:07;;;;;;;1.30;1.20;;;;;;;;;;4546149;28;20024;-61
2021/10/20 00:42:23;;;;;;;1.90;1.48;;;;;;;;;;4546358;28;20118;-61
2021/10/20 00:44:49;;;;;;;1.77;1.23;;;;;;;;;;4544903;28;20045;-60
2021/10/20 00:46:59;;;;;;;1.30;1.15;;;;;;;;;;4545726;28;20060;-60
2021/10/20 00:49:10;;;;;;;1.50;1.30;;;;;;;;;;4545412;28;20086;-60
2021/10/20 00:51:25;;;;;;;1.43;1.20;;;;;;;;;;4547537;28;20637;-60
2021/10/20 00:53:35;;;;;;;1.20;1.10;;;;;;;;;;4545079;28;20250;-60
2021/10/20 00:55:46;;;;;;;2.00;1.60;;;;;;;;;;4544890;28;20413;-60
2021/10/20 00:57:56;;;;;;;1.93;1.30;;;;;;;;;;4543408;28;20052;-60
2021/10/20 01:00:08;;;;;;;1.53;1.23;;;;;;;;;;4544454;28;20041;-60
2021/10/20 01:02:19;;;;;;;1.63;1.35;;;;;;;;;;4545838;28;20037;-61
2021/10/20 01:04:30;;;;;;;2.00;1.30;;;;;;;;;;4547725;28;20036;-60
2021/10/20 01:06:41;;;;;;;1.73;1.20;;;;;;;;;;4546656;28;20036;-61
2021/10/20 01:08:51;;;;;;;1.33;1.23;;;;;;;;;;4546381;28;20263;-60
2021/10/20 01:11:02;;;;;;;1.53;1.33;;;;;;;;;;4549856;28;20045;-60
2021/10/20 01:13:13;;;;;;;1.73;1.20;;;;;;;;;;4547084;28;20033;-60
2021/10/20 01:15:26;;;;;;;1.65;1.27;;;;;;;;;;4535969;28;20041;-61
2021/10/20 01:17:37;;;;;;;2.22;1.30;;;;;;;;;;4548362;28;20048;-61
2021/10/20 01:19:47;;;;;;;1.70;1.30;;;;;;;;;;4550393;28;20043;-61
2021/10/20 01:21:58;;;;;;;1.47;1.13;;;;;;;;;;4546696;28;20219;-60
2021/10/20 01:24:08;;;;;;;2.23;1.47;;;;;;;;;;4547756;28;20811;-61
2021/10/20 01:26:19;;;;;;;2.00;1.47;;;;;;;;;;4547379;28;20040;-60
2021/10/20 01:28:29;;;;;;;2.53;1.60;;;;;;;;;;4549889;28;20072;-60
2021/10/20 01:30:40;;;;;;;1.40;1.20;;;;;;;;;;4546479;28;20103;-60
2021/10/20 01:32:50;;;;;;;2.53;1.40;;;;;;;;;;4547901;28;20028;-60
2021/10/20 01:35:01;;;;;;;1.90;1.53;;;;;;;;;;4546892;28;20033;-60
2021/10/20 01:37:12;;;;;;;1.60;1.20;;;;;;;;;;4547841;28;20067;-60
2021/10/20 01:39:22;;;;;;;2.17;1.50;;;;;;;;;;4548045;28;20041;-61
2021/10/20 01:41:33;;;;;;;2.17;1.70;;;;;;;;;;4548360;28;20032;-60
2021/10/20 01:43:49;;;;;;;1.88;1.55;;;;;;;;;;4556691;28;20539;-60
2021/10/20 01:45:59;;;;;;;1.35;1.25;;;;;;;;;;4547786;28;20083;-60
2021/10/20 01:48:10;;;;;;;1.73;1.37;;;;;;;;;;4547967;28;20051;-61
2021/10/20 01:50:20;;;;;;;2.10;1.40;;;;;;;;;;4549265;28;29816;-60
2021/10/20 01:52:30;;;;;;;1.30;1.20;;;;;;;;;;4546852;28;31232;-61
2021/10/20 01:54:41;;;;;;;1.40;1.13;;;;;;;;;;4545088;28;20037;-61
2021/10/20 01:56:51;;;;;;;1.60;1.30;;;;;;;;;;4547019;28;20789;-60
2021/10/20 01:59:02;;;;;;;1.90;1.33;;;;;;;;;;4547729;28;20041;-60
2021/10/20 02:01:12;;;;;;;1.50;1.27;;;;;;;;;;4546622;28;20037;-60
2021/10/20 02:03:27;;;;;;;2.93;1.40;;;;;;;;;;4551270;28;20029;-60
2021/10/20 02:05:37;;;;;;;1.60;1.25;;;;;;;;;;4549603;28;20683;-61
2021/10/20 02:07:48;;;;;;;2.57;1.40;;;;;;;;;;4549053;28;20143;-60
2021/10/20 02:09:58;;;;;;;1.60;1.33;;;;;;;;;;4545852;28;20039;-61
2021/10/20 02:12:09;;;;;;;1.97;1.50;;;;;;;;;;4545068;28;20033;-60
2021/10/20 02:14:20;;;;;;;2.30;1.55;;;;;;;;;;4555268;28;20031;-60
2021/10/20 02:16:30;;;;;;;2.17;1.37;;;;;;;;;;4547028;28;20037;-60
2021/10/20 02:18:41;;;;;;;1.90;1.23;;;;;;;;;;4546275;28;20029;-61
2021/10/20 02:20:52;;;;;;;2.00;1.50;;;;;;;;;;4545223;28;20032;-61
2021/10/20 02:23:03;;;;;;;1.75;1.30;;;;;;;;;;4547720;28;20579;-61
2021/10/20 02:25:13;;;;;;;1.90;1.60;;;;;;;;;;4545843;28;20037;-60
2021/10/20 02:27:23;;;;;;;1.80;1.30;;;;;;;;;;4547532;28;20505;-60
2021/10/20 02:29:34;;;;;;;1.27;1.13;;;;;;;;;;4546273;28;20033;-61
2021/10/20 02:31:47;;;;;;;2.13;1.30;;;;;;;;;;4545813;28;28159;-60
2021/10/20 02:33:57;;;;;;;1.92;1.27;;;;;;;;;;4544854;28;20048;-61
2021/10/20 02:36:08;;;;;;;2.63;1.50;;;;;;;;;;4545253;28;20043;-60
2021/10/20 02:38:18;;;;;;;3.10;1.80;;;;;;;;;;4547710;28;20068;-60
2021/10/20 02:40:29;;;;;;;1.30;1.20;;;;;;;;;;4555614;28;20078;-61
2021/10/20 02:42:41;;;;;;;1.53;1.30;;;;;;;;;;4547393;28;20155;-61
2021/10/20 02:44:51;;;;;;;1.70;1.40;;;;;;;;;;4548780;28;20025;-60
2021/10/20 02:47:02;;;;;;;1.27;1.10;;;;;;;;;;4547888;28;26442;-60
2021/10/20 02:49:12;;;;;;;2.17;1.40;;;;;;;;;;4547953;28;20044;-61
2021/10/20 02:51:23;;;;;;;2.07;1.20;;;;;;;;;;4545058;28;20372;-60
2021/10/20 02:53:34;;;;;;;2.35;1.42;;;;;;;;;;4546914;28;20044;-60
2021/10/20 02:55:44;;;;;;;1.87;1.23;;;;;;;;;;4546734;28;20039;-60
2021/10/20 02:57:56;;;;;;;1.30;1.20;;;;;;;;;;4545224;28;20073;-60
2021/10/20 03:00:07;;;;;;;1.33;1.20;;;;;;;;;;4546385;28;21095;-60
2021/10/20 03:02:18;;;;;;;2.38;1.30;;;;;;;;;;4547566;28;20059;-60
2021/10/20 03:04:29;;;;;;;2.63;1.30;;;;;;;;;;4554815;28;20052;-60
2021/10/20 03:06:39;;;;;;;2.63;1.50;;;;;;;;;;4546686;28;20240;-60
2021/10/20 03:08:50;;;;;;;1.50;1.33;;;;;;;;;;4546656;28;27931;-60
2021/10/20 03:11:00;;;;;;;1.80;1.40;;;;;;;;;;4546871;28;20495;-60
2021/10/20 03:13:10;;;;;;;2.13;1.40;;;;;;;;;;4547384;28;20033;-60
2021/10/20 03:15:21;;;;;;;2.43;1.40;;;;;;;;;;4548432;28;20105;-60
2021/10/20 03:17:31;;;;;;;1.53;1.33;;;;;;;;;;4547825;28;26909;-60
2021/10/20 03:19:43;;;;;;;2.30;1.60;;;;;;;;;;4546870;28;20039;-60
2021/10/20 03:21:54;;;;;;;2.50;1.50;;;;;;;;;;4547378;28;20044;-60
2021/10/20 03:24:04;;;;;;;2.13;1.70;;;;;;;;;;4547015;28;20557;-61
2021/10/20 03:26:15;;;;;;;2.00;1.50;;;;;;;;;;4529537;28;20045;-60
2021/10/20 03:28:25;;;;;;;2.00;1.20;;;;;;;;;;4547145;28;20137;-61
2021/10/20 03:30:35;;;;;;;2.30;1.40;;;;;;;;;;4547173;28;20033;-61
2021/10/20 03:32:46;;;;;;;1.73;1.33;;;;;;;;;;4546103;28;20041;-60
2021/10/20 03:34:57;;;;;;;1.52;1.20;;;;;;;;;;4546813;28;20110;-61
2021/10/20 03:37:07;;;;;;;1.60;1.30;;;;;;;;;;4546591;28;20033;-60
2021/10/20 03:39:18;;;;;;;1.97;1.43;;;;;;;;;;4545912;28;20043;-61
2021/10/20 03:41:28;;;;;;;1.50;1.40;;;;;;;;;;4545934;28;20094;-60
2021/10/20 03:43:39;;;;;;;2.00;1.30;;;;;;;;;;4546351;28;20592;-60
2021/10/20 03:45:50;;;;;;;2.08;1.48;;;;;;;;;;4543230;28;20071;-60
2021/10/20 03:48:00;;;;;;;2.72;1.40;;;;;;;;;;4546529;28;20079;-61
2021/10/20 03:50:11;;;;;;;2.57;1.60;;;;;;;;;;4545054;28;20040;-60
2021/10/20 03:52:22;;;;;;;1.70;1.47;;;;;;;;;;4545001;28;20149;-60
2021/10/20 03:54:32;;;;;;;1.98;1.42;;;;;;;;;;4545488;28;20040;-60
2021/10/20 03:56:42;;;;;;;1.90;1.30;;;;;;;;;;4546010;28;29762;-60
2021/10/20 03:58:53;;;;;;;1.67;1.40;;;;;;;;;;4545077;28;37907;-60
2021/10/20 04:01:03;;;;;;;1.97;1.50;;;;;;;;;;4546232;28;20033;-61
2021/10/20 04:03:14;;;;;;;1.67;1.30;;;;;;;;;;4546385;28;20049;-60
2021/10/20 04:05:24;;;;;;;2.30;1.60;;;;;;;;;;4545280;28;20072;-60
2021/10/20 04:07:34;;;;;;;1.73;1.27;;;;;;;;;;4544691;28;21194;-60
2021/10/20 04:09:45;;;;;;;1.67;1.33;;;;;;;;;;4546837;28;20025;-60
2021/10/20 04:11:55;;;;;;;2.47;1.37;;;;;;;;;;4546812;28;20048;-61
2021/10/20 04:14:06;;;;;;;1.77;1.43;;;;;;;;;;4547385;28;20087;-60
2021/10/20 04:16:16;;;;;;;2.00;1.43;;;;;;;;;;4546090;28;20025;-61
2021/10/20 04:18:27;;;;;;;2.30;1.60;;;;;;;;;;4545538;28;20033;-61
2021/10/20 04:20:37;;;;;;;2.47;1.20;;;;;;;;;;4544016;28;32000;-60
2021/10/20 04:22:48;;;;;;;1.87;1.40;;;;;;;;;;4544954;28;20375;-60
2021/10/20 04:24:59;;;;;;;2.03;1.30;;;;;;;;;;4544382;28;20076;-60
2021/10/20 04:27:09;;;;;;;1.60;1.50;;;;;;;;;;4545366;28;31866;-60
2021/10/20 04:29:19;;;;;;;2.10;1.53;;;;;;;;;;4545824;28;25237;-60
2021/10/20 04:31:30;;;;;;;3.20;1.77;;;;;;;;;;4546801;28;20037;-60
2021/10/20 04:33:41;;;;;;;1.53;1.27;;;;;;;;;;4543206;28;20045;-60
2021/10/20 04:35:51;;;;;;;2.53;1.30;;;;;;;;;;4547817;28;20028;-60
2021/10/20 04:38:02;;;;;;;1.27;1.17;;;;;;;;;;4550552;28;22170;-60
2021/10/20 04:40:12;;;;;;;1.88;1.50;;;;;;;;;;4549077;28;20443;-60
2021/10/20 04:42:24;;;;;;;2.33;1.20;;;;;;;;;;4548945;28;20041;-60
2021/10/20 04:44:35;;;;;;;2.20;1.50;;;;;;;;;;4550084;28;20045;-60
2021/10/20 04:46:45;;;;;;;2.07;1.47;;;;;;;;;;4547196;28;20032;-60
2021/10/20 04:48:56;;;;;;;1.63;1.33;;;;;;;;;;4548741;28;24575;-60
2021/10/20 04:51:06;;;;;;;1.70;1.30;;;;;;;;;;4550249;28;20405;-60
2021/10/20 04:53:17;;;;;;;1.77;1.37;;;;;;;;;;4547746;28;20033;-60
2021/10/20 04:55:28;;;;;;;1.97;1.33;;;;;;;;;;4548328;28;20114;-60
2021/10/20 04:57:38;;;;;;;2.60;1.60;;;;;;;;;;4548264;28;20109;-60
2021/10/20 04:59:48;;;;;;;1.70;1.47;;;;;;;;;;4557843;28;20036;-60
2021/10/20 05:01:59;;;;;;;1.80;1.50;;;;;;;;;;4547768;28;20037;-60
2021/10/20 05:04:10;;;;;;;2.40;1.60;;;;;;;;;;4539967;28;20196;-60
2021/10/20 05:06:20;;;;;;;1.97;1.57;;;;;;;;;;4549068;28;20275;-60
2021/10/20 05:08:31;;;;;;;2.30;1.50;;;;;;;;;;4549090;28;24331;-60
2021/10/20 05:10:41;;;;;;;2.17;1.38;;;;;;;;;;4547874;28;20115;-60
2021/10/20 05:12:53;;;;;;;2.30;1.47;;;;;;;;;;4547264;28;20083;-60
2021/10/20 05:15:04;;;;;;;2.60;1.65;;;;;;;;;;4549793;28;20087;-60
2021/10/20 05:17:14;;;;;;;2.53;1.60;;;;;;;;;;4549551;28;20055;-60
2021/10/20 05:19:25;;;;;;;1.97;1.60;;;;;;;;;;4547746;28;20049;-60
2021/10/20 05:21:35;;;;;;;2.43;1.53;;;;;;;;;;4547326;28;28270;-59
2021/10/20 05:23:49;;;;;;;1.60;1.40;;;;;;;;;;4539953;28;20400;-59
2021/10/20 05:26:00;;;;;;;1.67;1.42;;;;;;;;;;4548983;28;20049;-60
2021/10/20 05:28:10;;;;;;;2.27;1.70;;;;;;;;;;4548748;28;20037;-60
2021/10/20 05:30:21;;;;;;;2.40;1.53;;;;;;;;;;4549274;28;20400;-60
2021/10/20 05:32:31;;;;;;;2.40;1.43;;;;;;;;;;4546672;28;20416;-60
2021/10/20 05:34:42;;;;;;;1.67;1.37;;;;;;;;;;4547919;28;20024;-60
2021/10/20 05:36:52;;;;;;;1.83;1.53;;;;;;;;;;4556292;28;20037;-60
2021/10/20 05:39:04;;;;;;;2.67;1.53;;;;;;;;;;4546685;28;20084;-60
2021/10/20 05:41:15;;;;;;;2.15;1.50;;;;;;;;;;4548863;28;20037;-60
2021/10/20 05:43:25;;;;;;;2.43;1.60;;;;;;;;;;4546756;28;20037;-60
2021/10/20 05:45:36;;;;;;;2.17;1.57;;;;;;;;;;4547512;28;20037;-60
2021/10/20 05:47:46;;;;;;;3.60;1.60;;;;;;;;;;4551004;28;20043;-60
2021/10/20 05:49:57;;;;;;;2.47;1.80;;;;;;;;;;4547095;28;20064;-60
2021/10/20 05:52:08;;;;;;;2.43;1.60;;;;;;;;;;4548555;28;20112;-60
2021/10/20 05:54:18;;;;;;;4.15;1.75;;;;;;;;;;4548379;28;20017;-60
2021/10/20 05:56:29;;;;;;;2.67;1.80;;;;;;;;;;4546761;28;20076;-60
2021/10/20 05:58:39;;;;;;;1.83;1.50;;;;;;;;;;4548420;28;20040;-60
2021/10/20 06:00:50;;;;;;;2.50;1.70;;;;;;;;;;4546481;28;20112;-60
2021/10/20 06:03:00;;;;;;;1.80;1.50;;;;;;;;;;4546828;28;20041;-60
2021/10/20 06:05:10;;;;;;;2.57;1.50;;;;;;;;;;4549824;28;20041;-60
2021/10/20 06:07:21;;;;;;;2.17;1.47;;;;;;;;;;4545988;28;20033;-60
2021/10/20 06:09:33;;;;;;;3.10;1.70;;;;;;;;;;4547014;28;30493;-60
2021/10/20 06:11:44;;;;;;;2.58;1.67;;;;;;;;;;4547022;28;20555;-60
2021/10/20 06:13:54;;;;;;;2.33;1.47;;;;;;;;;;4546450;28;20041;-60
2021/10/20 06:16:05;;;;;;;2.50;1.57;;;;;;;;;;4547939;28;20029;-60
2021/10/20 06:18:15;;;;;;;2.50;1.70;;;;;;;;;;4533629;28;20180;-60
2021/10/20 06:20:25;;;;;;;2.83;1.90;;;;;;;;;;4544530;28;20119;-60
2021/10/20 06:22:40;;;;;;;2.30;1.80;;;;;;;;;;4547173;28;20036;-60
2021/10/20 06:24:51;;;;;;;3.35;1.60;;;;;;;;;;4547560;28;20055;-60
2021/10/20 06:27:01;;;;;;;3.00;1.40;;;;;;;;;;4547400;28;20040;-60
2021/10/20 06:29:11;;;;;;;3.20;1.60;;;;;;;;;;4532645;28;20686;-60
2021/10/20 06:31:22;;;;;;;2.13;1.70;;;;;;;;;;4547889;28;20044;-60
2021/10/20 06:33:32;;;;;;;2.60;1.80;;;;;;;;;;4545358;28;20064;-60
2021/10/20 06:35:43;;;;;;;5.27;2.23;;;;;;;;;;4546647;28;25945;-60
2021/10/20 06:37:54;;;;;;;2.40;1.77;;;;;;;;;;4549765;28;20606;-60
2021/10/20 06:40:06;;;;;;;2.50;1.73;;;;;;;;;;4535761;28;20497;-60
2021/10/20 06:42:17;;;;;;;2.22;1.73;;;;;;;;;;4545879;28;20029;-60
2021/10/20 06:44:27;;;;;;;3.03;1.70;;;;;;;;;;4544466;28;20048;-60
2021/10/20 06:46:38;;;;;;;2.87;1.97;;;;;;;;;;4549150;28;20044;-61
2021/10/20 06:48:48;;;;;;;3.87;1.83;;;;;;;;;;4545246;28;20572;-60
2021/10/20 06:50:58;;;;;;;3.73;1.77;;;;;;;;;;4546344;28;20037;-60
2021/10/20 06:53:09;;;;;;;3.50;1.83;;;;;;;;;;4544211;28;20143;-61
2021/10/20 06:55:19;;;;;;;3.00;1.70;;;;;;;;;;4544197;28;20036;-60
2021/10/20 06:57:30;;;;;;;1.93;1.57;;;;;;;;;;4544184;28;23520;-60
2021/10/20 06:59:41;;;;;;;3.30;1.87;;;;;;;;;;4545673;28;20071;-61
2021/10/20 07:01:51;;;;;;;2.25;1.70;;;;;;;;;;4544237;28;20037;-60
2021/10/20 07:04:02;;;;;;;2.67;1.63;;;;;;;;;;4545895;28;20040;-60
2021/10/20 07:06:12;;;;;;;2.80;1.93;;;;;;;;;;4545819;28;20029;-60
2021/10/20 07:08:23;;;;;;;2.03;1.70;;;;;;;;;;4545222;28;20033;-60
2021/10/20 07:10:36;;;;;;;4.37;2.10;;;;;;;;;;4544047;28;20036;-60
2021/10/20 07:12:46;;;;;;;4.13;1.95;;;;;;;;;;4544893;28;20831;-60
2021/10/20 07:14:58;;;;;;;2.17;1.70;;;;;;;;;;4546352;28;20044;-60
2021/10/20 07:17:09;;;;;;;4.20;1.75;;;;;;;;;;4544358;28;20032;-60
2021/10/20 07:19:19;;;;;;;1.83;1.63;;;;;;;;;;4545315;28;20041;-60
2021/10/20 07:21:30;;;;;;;2.50;1.60;;;;;;;;;;4545277;28;20032;-60
2021/10/20 07:23:40;;;;;;;2.47;1.87;;;;;;;;;;4546699;28;20449;-60
2021/10/20 07:25:51;;;;;;;1.70;1.50;;;;;;;;;;4554157;28;20041;-60
2021/10/20 07:28:01;;;;;;;2.33;1.70;;;;;;;;;;4546457;28;20474;-60
2021/10/20 07:30:12;;;;;;;1.80;1.57;;;;;;;;;;4545611;28;20029;-59
2021/10/20 07:32:22;;;;;;;2.72;1.67;;;;;;;;;;4544243;28;20029;-60
2021/10/20 07:34:33;;;;;;;3.50;1.77;;;;;;;;;;4545509;28;20114;-60
2021/10/20 07:36:44;;;;;;;2.10;1.67;;;;;;;;;;4545328;28;20119;-59
2021/10/20 07:38:55;;;;;;;2.00;1.60;;;;;;;;;;4545222;28;20554;-59
2021/10/20 07:41:05;;;;;;;3.43;1.57;;;;;;;;;;4542251;28;20033;-59
2021/10/20 07:43:16;;;;;;;2.00;1.60;;;;;;;;;;4545778;28;20398;-60
2021/10/20 07:45:27;;;;;;;1.80;1.60;;;;;;;;;;4544696;28;20080;-60
2021/10/20 07:47:38;;;;;;;2.83;1.87;;;;;;;;;;4543856;28;20147;-60
2021/10/20 07:49:48;;;;;;;2.87;1.90;;;;;;;;;;4545239;28;20029;-60
2021/10/20 07:51:58;;;;;;;2.83;1.70;;;;;;;;;;4546339;28;20094;-60
2021/10/20 07:54:09;;;;;;;2.40;1.60;;;;;;;;;;4544002;28;20039;-57
2021/10/20 07:56:19;;;;;;;2.40;1.63;;;;;;;;;;4547375;28;20021;-60
2021/10/20 07:58:30;;;;;;;2.27;1.70;;;;;;;;;;4545962;28;20108;-60
2021/10/20 08:00:40;;;;;;;2.83;1.90;;;;;;;;;;4545184;28;20457;-60
2021/10/20 08:02:51;;;;;;;2.87;1.80;;;;;;;;;;4542544;28;20580;-60
2021/10/20 08:05:02;;;;;;;2.97;1.88;;;;;;;;;;4542611;28;20044;-60
2021/10/20 08:07:13;;;;;;;2.00;1.58;;;;;;;;;;4542649;28;20087;-60
2021/10/20 08:09:23;;;;;;;2.03;1.77;;;;;;;;;;4543645;28;20133;-60
2021/10/20 08:11:37;;;;;;;2.33;1.90;;;;;;;;;;4545047;28;20068;-60
2021/10/20 08:13:47;;;;;;;2.33;1.80;;;;;;;;;;4545799;28;20228;-61
2021/10/20 08:16:01;;;;;;;2.83;1.87;;;;;;;;;;4526845;28;20399;-62
2021/10/20 08:18:12;;;;;;;2.08;1.55;;;;;;;;;;4535529;28;20330;-60
2021/10/20 08:20:23;;;;;;;2.67;1.60;;;;;;;;;;4528395;28;20880;-60
2021/10/20 08:22:34;;;;;;;2.67;1.60;;;;;;;;;;4543033;28;20032;-61
2021/10/20 08:24:44;;;;;;;2.33;1.50;;;;;;;;;;4533559;28;20568;-60
2021/10/20 08:26:55;;;;;;;1.73;1.40;;;;;;;;;;4524686;28;20112;-61
2021/10/20 08:29:07;;;;;;;2.23;1.80;;;;;;;;;;4529527;28;20501;-60
2021/10/20 08:31:18;;;;;;;1.92;1.60;;;;;;;;;;4544076;28;20688;-61
2021/10/20 08:33:28;;;;;;;1.93;1.53;;;;;;;;;;4528120;28;20051;-60
2021/10/20 08:35:39;;;;;;;2.23;1.57;;;;;;;;;;4534100;28;20064;-60
2021/10/20 08:37:55;;;;;;;2.03;1.23;;;;;;;;;;4505903;28;20170;-60
2021/10/20 08:40:06;;;;;;;1.90;1.50;;;;;;;;;;4491032;28;20160;-60
2021/10/20 08:42:17;;;;;;;2.30;1.55;;;;;;;;;;4500774;28;20042;-61
2021/10/20 08:44:47;;;;;;;3.40;1.70;;;;;;;;;;4493847;28;22897;-60
2021/10/20 08:46:59;;;;;;;2.58;1.63;;;;;;;;;;4489626;28;20046;-61
2021/10/20 08:49:10;;;;;;;1.95;1.60;;;;;;;;;;4476152;28;20742;-60
2021/10/20 08:51:22;;;;;;;2.10;1.58;;;;;;;;;;4505437;28;20100;-60
2021/10/20 08:53:33;;;;;;;2.50;1.50;;;;;;;;;;4509604;28;20037;-60
2021/10/20 08:55:45;;;;;;;2.67;1.60;;;;;;;;;;4502873;28;20487;-60
2021/10/20 08:57:56;;;;;;;1.80;1.50;;;;;;;;;;4492388;28;20041;-61
2021/10/20 09:00:08;;;;;;;3.05;1.73;;;;;;;;;;4501005;28;20038;-61
2021/10/20 09:02:22;;;;;;;3.05;1.60;;;;;;;;;;4507391;28;20030;-62
2021/10/20 09:04:33;;;;;;;1.45;1.35;;;;;;;;;;4504791;28;20124;-61
2021/10/20 09:06:43;;;;;;;2.35;1.90;;;;;;;;;;4506863;28;20099;-61
2021/10/20 09:08:54;;;;;;;2.67;1.57;;;;;;;;;;4506698;28;20092;-61
2021/10/20 09:11:32;;;;;;;1.77;1.60;;;;;;;;;;4508784;28;20083;-61
2021/10/20 09:13:43;;;;;;;2.15;1.60;;;;;;;;;;4507208;28;20205;-61
2021/10/20 09:15:57;;;;;;;2.87;1.60;;;;;;;;;;4507888;28;20159;-61
2021/10/20 09:18:11;;;;;;;2.00;1.55;;;;;;;;;;4508816;28;20168;-61
2021/10/20 09:20:37;;;;;;;1.95;1.63;;;;;;;;;;4523035;28;20033;-61
2021/10/20 09:22:59;;;;;;;2.20;1.80;;;;;;;;;;4512348;28;20128;-61
2021/10/20 09:25:16;;;;;;;2.28;1.60;;;;;;;;;;4511814;28;20038;-60
2021/10/20 09:27:29;;;;;;;3.38;1.70;;;;;;;;;;4509977;28;20044;-60
2021/10/20 09:29:39;;;;;;;2.60;1.80;;;;;;;;;;4509855;28;20029;-61
2021/10/20 09:41:49;;;;;;;2.38;1.60;;;;;;;;;;4658154;22;20642;-84
2021/10/20 09:43:59;;;;;;;2.63;1.77;;;;;;;;;;4488721;28;1258259;-60
2021/10/20 09:46:10;;;;;;;2.50;1.70;;;;;;;;;;4528404;28;20040;-61
2021/10/20 09:48:23;;;;;;;2.53;1.48;;;;;;;;;;4513470;28;20036;-61
2021/10/20 09:50:38;;;;;;;2.80;1.83;;;;;;;;;;4517304;28;20584;-60
2021/10/20 09:52:50;;;;;;;2.53;1.52;;;;;;;;;;4527411;28;20677;-61
2021/10/20 09:55:01;;;;;;;2.58;1.70;;;;;;;;;;4529698;28;20037;-61
2021/10/20 09:57:13;;;;;;;1.80;1.40;;;;;;;;;;4530613;28;20030;-61
2021/10/20 09:59:24;;;;;;;2.92;1.77;;;;;;;;;;4529299;28;20619;-61
2021/10/20 10:01:35;;;;;;;2.17;1.58;;;;;;;;;;4531243;28;20021;-61
2021/10/20 10:03:45;;;;;;;2.73;1.93;;;;;;;;;;4527609;28;20080;-61
2021/10/20 10:05:56;;;;;;;2.20;1.73;;;;;;;;;;4530323;28;20040;-61
2021/10/20 10:08:06;;;;;;;1.67;1.40;;;;;;;;;;4529984;28;20048;-61
2021/10/20 10:10:17;;;;;;;1.67;1.57;;;;;;;;;;4529476;28;20401;-61
2021/10/20 10:12:28;;;;;;;4.23;1.90;;;;;;;;;;4526112;28;20034;-61
2021/10/20 10:14:46;;;;;;;3.55;1.60;;;;;;;;;;4508720;28;20969;-61
2021/10/20 10:17:00;;;;;;;2.78;1.60;;;;;;;;;;4512022;28;20029;-61
2021/10/20 10:19:11;;;;;;;1.77;1.52;;;;;;;;;;4527884;28;20787;-61
2021/10/20 10:21:40;;;;;;;3.22;1.75;;;;;;;;;;4513729;28;20137;-61
2021/10/20 10:23:54;;;;;;;2.72;1.70;;;;;;;;;;4527488;28;20033;-61
2021/10/20 10:26:08;;;;;;;2.85;1.98;;;;;;;;;;4511419;28;20038;-61
2021/10/20 10:28:20;;;;;;;1.75;1.60;;;;;;;;;;4528693;28;20035;-61
2021/10/20 10:30:32;;;;;;;2.47;1.60;;;;;;;;;;4528327;28;20084;-61
2021/10/20 10:32:46;;;;;;;2.30;1.80;;;;;;;;;;4514285;28;20034;-61
2021/10/20 10:35:01;;;;;;;2.05;1.65;;;;;;;;;;4529767;28;20068;-61
2021/10/20 10:37:26;;;;;;;3.72;1.65;;;;;;;;;;4514918;28;20038;-61
2021/10/20 10:39:46;;;;;;;2.22;1.70;;;;;;;;;;4512888;28;20038;-61
2021/10/20 10:42:05;;;;;;;2.60;1.50;;;;;;;;;;4529680;28;20584;-61
2021/10/20 10:44:23;;;;;;;2.67;1.85;;;;;;;;;;4526942;28;20044;-61
2021/10/20 10:46:35;;;;;;;2.58;1.80;;;;;;;;;;4518436;28;20034;-61
2021/10/20 10:48:45;;;;;;;2.22;1.80;;;;;;;;;;4529228;28;20017;-61
2021/10/20 10:50:56;;;;;;;3.63;1.97;;;;;;;;;;4506750;28;20041;-61
2021/10/20 10:53:07;;;;;;;2.53;1.93;;;;;;;;;;4517226;28;20080;-61
2021/10/20 10:55:19;;;;;;;3.03;1.65;;;;;;;;;;4516735;28;20653;-61
2021/10/20 10:57:43;;;;;;;2.50;1.70;;;;;;;;;;4516051;28;20037;-61
2021/10/20 11:00:04;;;;;;;2.15;1.80;;;;;;;;;;4517002;28;20029;-62
2021/10/20 11:02:39;;;;;;;2.60;1.75;;;;;;;;;;4499359;28;20038;-64
2021/10/20 11:04:49;;;;;;;2.08;1.60;;;;;;;;;;4515415;28;20039;-62
2021/10/20 11:07:02;;;;;;;4.40;1.80;;;;;;;;;;4517667;28;20040;-62
2021/10/20 11:09:21;;;;;;;2.67;1.92;;;;;;;;;;4502544;28;20034;-62
2021/10/20 11:11:31;;;;;;;2.50;1.73;;;;;;;;;;4513829;28;20160;-61
2021/10/20 11:13:42;;;;;;;2.87;1.90;;;;;;;;;;4504788;28;20036;-63
2021/10/20 11:15:52;;;;;;;2.00;1.60;;;;;;;;;;4505528;28;20536;-61
2021/10/20 11:18:03;;;;;;;2.50;1.87;;;;;;;;;;4515459;28;20041;-62
2021/10/20 11:20:16;;;;;;;3.33;2.00;;;;;;;;;;4503445;28;20054;-62
2021/10/20 11:22:27;;;;;;;2.25;1.88;;;;;;;;;;4500320;28;20033;-62
2021/10/20 11:24:46;;;;;;;1.90;1.70;;;;;;;;;;4514932;28;20527;-62
2021/10/20 11:26:58;;;;;;;1.77;1.65;;;;;;;;;;4516176;28;20061;-61
2021/10/20 11:29:09;;;;;;;3.08;1.77;;;;;;;;;;4517540;28;20475;-62
2021/10/20 11:31:20;;;;;;;2.22;1.75;;;;;;;;;;4505784;28;20540;-62
2021/10/20 11:33:30;;;;;;;3.47;2.10;;;;;;;;;;4518600;28;20516;-62
2021/10/20 11:35:41;;;;;;;3.00;1.77;;;;;;;;;;4516668;28;20033;-62
2021/10/20 11:38:14;;;;;;;2.07;1.67;;;;;;;;;;4515237;28;20861;-62
2021/10/20 11:40:29;;;;;;;2.00;1.70;;;;;;;;;;4503354;28;20057;-62
2021/10/20 11:42:42;;;;;;;2.08;1.83;;;;;;;;;;4503591;28;21181;-62
2021/10/20 11:44:52;;;;;;;2.03;1.63;;;;;;;;;;4512977;28;20572;-62
2021/10/20 11:47:05;;;;;;;2.60;1.93;;;;;;;;;;4501592;28;20037;-62
2021/10/20 11:49:15;;;;;;;2.35;1.90;;;;;;;;;;4515577;28;20514;-62
2021/10/20 11:51:26;;;;;;;2.20;1.80;;;;;;;;;;4516904;28;20030;-62
2021/10/20 11:53:37;;;;;;;2.53;1.80;;;;;;;;;;4506422;28;20116;-62
2021/10/20 11:55:49;;;;;;;2.30;1.55;;;;;;;;;;4505537;28;20042;-61
2021/10/20 11:57:59;;;;;;;2.22;1.83;;;;;;;;;;4515362;28;20950;-62
2021/10/20 12:00:10;;;;;;;2.23;1.70;;;;;;;;;;4496301;28;20133;-62
2021/10/20 12:02:21;;;;;;;2.38;1.58;;;;;;;;;;4514127;28;20568;-62
2021/10/20 12:04:31;;;;;;;2.07;1.67;;;;;;;;;;4514623;28;20189;-61
2021/10/20 12:06:42;;;;;;;2.83;1.80;;;;;;;;;;4514927;28;20035;-61
2021/10/20 12:08:53;;;;;;;1.83;1.63;;;;;;;;;;4503389;28;20041;-61
2021/10/20 12:11:04;;;;;;;2.25;1.70;;;;;;;;;;4513974;28;20030;-60
2021/10/20 12:13:15;;;;;;;3.25;2.10;;;;;;;;;;4515128;28;20044;-60
2021/10/20 12:15:27;;;;;;;2.72;1.95;;;;;;;;;;4500389;28;20046;-60
2021/10/20 12:17:38;;;;;;;2.53;1.63;;;;;;;;;;4514933;28;20032;-60
2021/10/20 12:19:48;;;;;;;2.17;1.57;;;;;;;;;;4514925;28;20124;-60
2021/10/20 12:22:03;;;;;;;3.53;1.73;;;;;;;;;;4505215;28;20041;-60
2021/10/20 12:24:18;;;;;;;2.28;1.70;;;;;;;;;;4488905;28;20066;-60
2021/10/20 12:26:30;;;;;;;1.80;1.50;;;;;;;;;;4514749;28;20029;-60
2021/10/20 12:28:42;;;;;;;2.17;1.70;;;;;;;;;;4517104;28;20114;-61
2021/10/20 12:30:53;;;;;;;1.98;1.65;;;;;;;;;;4501360;28;20029;-61
2021/10/20 12:33:12;;;;;;;;;;;;;;;;;;4503970;28;20100;-61
2021/10/20 12:35:22;;;;;;;2.25;2.00;;;;;;;;;;4515088;28;20882;-60
2021/10/20 12:37:38;;;;;;;3.20;1.70;;;;;;;;;;4512995;28;20056;-62
2021/10/20 12:39:49;;;;;;;2.22;1.73;;;;;;;;;;4482261;28;20912;-61
2021/10/20 12:42:00;;;;;;;2.53;1.92;;;;;;;;;;4511993;28;20137;-61
2021/10/20 12:44:11;;;;;;;2.10;1.58;;;;;;;;;;4500527;28;20038;-61
2021/10/20 12:46:22;;;;;;;2.10;1.77;;;;;;;;;;4515601;28;20045;-61
2021/10/20 12:48:33;;;;;;;2.22;1.60;;;;;;;;;;4513967;28;20084;-61
2021/10/20 12:50:48;;;;;;;2.95;2.00;;;;;;;;;;4502347;28;20068;-61
2021/10/20 12:52:58;;;;;;;1.95;1.75;;;;;;;;;;4502706;28;20113;-61
2021/10/20 12:55:12;;;;;;;3.03;1.80;;;;;;;;;;4515516;28;20611;-61
2021/10/20 12:57:23;;;;;;;2.22;1.75;;;;;;;;;;4500051;28;20037;-61
2021/10/20 12:59:35;;;;;;;2.60;1.90;;;;;;;;;;4513054;28;20046;-61
2021/10/20 13:01:46;;;;;;;2.70;1.90;;;;;;;;;;4499070;28;20037;-62
2021/10/20 13:03:57;;;;;;;2.15;1.80;;;;;;;;;;4516074;28;20033;-62
2021/10/20 13:06:09;;;;;;;3.20;1.90;;;;;;;;;;4486722;28;20030;-62
2021/10/20 13:08:19;;;;;;;2.30;1.88;;;;;;;;;;4498705;28;20045;-62
2021/10/20 13:10:30;;;;;;;1.90;1.37;;;;;;;;;;4514618;28;20078;-62
2021/10/20 13:12:42;;;;;;;2.13;1.70;;;;;;;;;;4512795;28;20033;-62
2021/10/20 13:14:53;;;;;;;2.15;1.77;;;;;;;;;;4519578;28;20592;-62
2021/10/20 13:17:03;;;;;;;2.80;1.70;;;;;;;;;;4516654;28;20026;-62
2021/10/20 13:19:14;;;;;;;2.93;2.00;;;;;;;;;;4515322;28;20041;-62